Garber, Oklahoma
Current Conditions -  °F | °C
As of 1:55 PM on Thursday 27 Nov 2014 (Local Time) from KWDG Reporting Station
Scattered Clouds Scattered Clouds  
Wind Chill: 42°   Ceiling: Unl
Heat Index: 48°   Visibility: 10mi
Dew Point: 19°   Wind: 16mph
Humidity: 32%   Direction: 150°SSE
Pressure: 30.39"   Gusts: NA
Location:  36.44°N, 97.59°W
Report Text: KWDG 271955Z 15014KT 10SM SCT200 09/M07 A3039
Loading
Personal Weather Stations






























Interactive Weather Map New forecast layout! Learn more

10-Day Weather Forecast

Advertisements
Track Severe Weather on mobile